createdAt,value
2019-03-18T00:00:27.799Z,108.70
2019-03-18T00:02:56.841Z,122.90
2019-03-18T00:05:25.707Z,119.30
2019-03-18T00:07:54.657Z,106.53
2019-03-18T00:10:23.491Z,111.70
2019-03-18T00:12:52.447Z,119.13
2019-03-18T00:15:21.353Z,132.00
2019-03-18T00:17:50.195Z,129.87
2019-03-18T00:20:19.064Z,95.80
2019-03-18T00:22:47.945Z,92.53
2019-03-18T00:25:16.882Z,87.73
2019-03-18T00:27:46.032Z,78.97
2019-03-18T00:30:19.202Z,76.90
2019-03-18T00:32:48.153Z,78.23
2019-03-18T00:35:17.004Z,81.03
2019-03-18T00:37:45.902Z,71.53
2019-03-18T00:40:19.823Z,77.40
2019-03-18T00:42:48.663Z,74.90
2019-03-18T00:45:17.669Z,81.23
2019-03-18T00:47:46.494Z,99.53
2019-03-18T00:50:17.119Z,114.53
2019-03-18T00:52:46.138Z,101.30
2019-03-18T00:55:14.977Z,94.67
2019-03-18T00:57:43.829Z,146.90
2019-03-18T01:00:14.884Z,120.53
2019-03-18T01:02:43.746Z,101.77
2019-03-18T01:05:12.613Z,79.53
2019-03-18T01:07:41.491Z,77.23
2019-03-18T01:10:18.090Z,100.23
2019-03-18T01:12:47.017Z,107.13
2019-03-18T01:15:27.593Z,91.53
2019-03-18T01:17:46.331Z,73.23
2019-03-18T01:20:15.612Z,78.70
2019-03-18T01:22:44.494Z,60.83
2019-03-18T01:25:13.530Z,53.13
2019-03-18T01:27:42.427Z,54.10
2019-03-18T01:30:12.862Z,58.53
2019-03-18T01:32:41.719Z,51.70
2019-03-18T01:35:11.420Z,51.40
2019-03-18T01:37:40.264Z,55.40
2019-03-18T01:40:11.585Z,50.13
2019-03-18T01:42:40.466Z,45.13
2019-03-18T01:45:10.407Z,49.00
2019-03-18T01:47:39.254Z,48.43
2019-03-18T01:50:15.190Z,52.67
2019-03-18T01:52:44.032Z,47.37
2019-03-18T01:55:12.974Z,53.63
2019-03-18T01:58:01.148Z,44.53
2019-03-18T02:03:12.213Z,44.20
2019-03-18T02:05:41.055Z,41.53
2019-03-18T02:08:09.912Z,46.37
2019-03-18T02:10:38.805Z,49.03
2019-03-18T02:13:07.694Z,57.60
2019-03-18T02:15:36.528Z,59.83
2019-03-18T02:18:05.416Z,54.90
2019-03-18T02:20:34.250Z,56.40
2019-03-18T02:23:03.099Z,42.90
2019-03-18T02:25:31.996Z,41.43
2019-03-18T02:28:00.848Z,48.67
2019-03-18T02:30:29.721Z,44.13
2019-03-18T02:32:58.667Z,53.37
2019-03-18T02:35:27.489Z,68.63
2019-03-18T02:37:56.322Z,64.43
2019-03-18T02:40:25.212Z,50.37
2019-03-18T02:42:54.066Z,60.13
2019-03-18T02:45:24.670Z,44.53
2019-03-18T02:47:53.448Z,39.20
2019-03-18T02:50:22.308Z,36.93
2019-03-18T02:52:51.155Z,40.90
2019-03-18T02:55:20.087Z,45.73
2019-03-18T02:57:48.940Z,42.47
2019-03-18T03:00:17.800Z,43.07
2019-03-18T03:02:46.712Z,39.60
2019-03-18T03:05:16.140Z,42.87
2019-03-18T03:07:44.999Z,46.20
2019-03-18T03:10:14.879Z,49.80
2019-03-18T03:12:43.760Z,71.10
2019-03-18T03:15:13.892Z,67.97
2019-03-18T03:17:43.021Z,54.27
2019-03-18T03:20:11.966Z,47.80
2019-03-18T03:22:40.806Z,43.10
2019-03-18T03:25:10.896Z,45.20
2019-03-18T03:27:39.715Z,33.33
2019-03-18T03:30:14.643Z,39.00
2019-03-18T03:32:43.700Z,37.63
2019-03-18T03:35:12.574Z,43.07
2019-03-18T03:37:41.479Z,39.40
2019-03-18T03:40:11.615Z,36.43
2019-03-18T03:42:40.550Z,37.90
2019-03-18T03:45:12.371Z,37.50
2019-03-18T03:47:41.212Z,43.67
2019-03-18T03:50:14.876Z,46.37
2019-03-18T03:52:43.813Z,50.17
2019-03-18T03:55:13.480Z,50.17
2019-03-18T03:57:42.433Z,44.23
2019-03-18T04:00:14.892Z,35.57
2019-03-18T04:02:43.720Z,36.83
2019-03-18T04:05:12.768Z,37.83
2019-03-18T04:07:41.745Z,36.57
2019-03-18T04:10:11.996Z,32.80
2019-03-18T04:12:40.848Z,35.77
2019-03-18T04:15:11.778Z,45.40
2019-03-18T04:17:40.608Z,35.33
2019-03-18T04:20:14.520Z,43.07
2019-03-18T04:22:43.392Z,48.87
2019-03-18T04:25:12.245Z,67.13
2019-03-18T04:27:41.906Z,117.20
2019-03-18T04:30:12.738Z,81.60
2019-03-18T04:32:41.671Z,53.17
2019-03-18T04:35:10.515Z,49.47
2019-03-18T04:37:39.412Z,61.37
2019-03-18T04:40:10.051Z,60.63
2019-03-18T04:42:38.895Z,70.23
2019-03-18T04:45:09.596Z,71.17
2019-03-18T04:47:38.452Z,57.70
2019-03-18T04:50:09.364Z,57.03
2019-03-18T04:52:38.280Z,57.27
2019-03-18T04:55:07.418Z,56.00
2019-03-18T04:57:36.254Z,55.03
2019-03-18T05:00:08.463Z,55.50
2019-03-18T05:02:37.326Z,58.73
2019-03-18T05:05:06.255Z,58.70
2019-03-18T05:07:35.163Z,62.90
2019-03-18T05:10:08.386Z,55.13
2019-03-18T05:12:37.246Z,61.10
2019-03-18T05:15:08.151Z,62.70
2019-03-18T05:17:37.003Z,57.87
2019-03-18T05:20:07.956Z,61.03
2019-03-18T05:22:36.864Z,77.90
2019-03-18T05:25:07.710Z,72.03
2019-03-18T05:27:36.622Z,77.53
2019-03-18T05:30:13.142Z,92.63
2019-03-18T05:32:41.992Z,99.57
2019-03-18T05:35:10.846Z,77.07
2019-03-18T05:37:39.757Z,87.43
2019-03-18T05:40:09.076Z,73.03
2019-03-18T05:42:37.883Z,59.37
2019-03-18T05:45:09.419Z,70.50
2019-03-18T05:47:39.556Z,75.83
2019-03-18T05:50:10.301Z,75.00
2019-03-18T05:52:39.294Z,86.20
2019-03-18T05:55:09.335Z,66.10
2019-03-18T05:57:38.177Z,77.40
2019-03-18T06:00:09.999Z,78.17
2019-03-18T06:02:38.849Z,83.87
2019-03-18T06:05:09.222Z,76.90
2019-03-18T06:07:38.446Z,89.07
2019-03-18T06:10:09.856Z,91.07
2019-03-18T06:12:38.815Z,96.23
2019-03-18T06:15:10.218Z,106.13
2019-03-18T06:17:51.219Z,117.50
2019-03-18T06:20:13.264Z,118.10
2019-03-18T06:22:42.150Z,119.97
2019-03-18T06:25:11.058Z,120.27
2019-03-18T06:27:39.954Z,126.53
2019-03-18T06:30:13.691Z,87.07
2019-03-18T06:32:42.537Z,94.00
2019-03-18T06:35:11.789Z,81.80
2019-03-18T06:37:40.770Z,81.57
2019-03-18T06:40:14.479Z,84.60
2019-03-18T06:42:43.398Z,78.63
2019-03-18T06:45:12.769Z,86.47
2019-03-18T06:47:41.708Z,91.63
2019-03-18T06:50:12.602Z,84.50
2019-03-18T06:52:41.437Z,84.20
2019-03-18T06:55:10.400Z,86.00
2019-03-18T06:57:39.292Z,86.33
2019-03-18T07:00:15.975Z,78.37
2019-03-18T07:02:44.863Z,95.33
2019-03-18T07:05:13.922Z,88.33
2019-03-18T07:07:42.790Z,92.20
2019-03-18T07:10:15.014Z,101.63
2019-03-18T07:12:43.872Z,89.63
2019-03-18T07:15:12.827Z,90.27
2019-03-18T07:17:41.725Z,93.57
2019-03-18T07:20:12.063Z,94.80
2019-03-18T07:22:40.957Z,102.13
2019-03-18T07:25:09.862Z,95.67
2019-03-18T07:27:38.706Z,74.03
2019-03-18T07:30:14.798Z,77.37
2019-03-18T07:32:43.738Z,90.23
2019-03-18T07:35:12.720Z,89.93
2019-03-18T07:37:41.635Z,108.63
2019-03-18T07:40:14.695Z,88.57
2019-03-18T07:42:43.560Z,86.77
2019-03-18T07:45:15.578Z,80.63
2019-03-18T07:47:43.911Z,63.17
2019-03-18T07:50:16.191Z,66.90
2019-03-18T07:52:45.146Z,54.40
2019-03-18T07:55:14.111Z,61.37
2019-03-18T07:57:42.959Z,51.42
2019-03-18T08:00:15.506Z,47.60
2019-03-18T08:02:44.307Z,57.78
2019-03-18T08:05:13.227Z,50.43
2019-03-18T08:07:42.126Z,55.78
2019-03-18T08:10:14.475Z,63.58
2019-03-18T08:12:43.330Z,43.48
2019-03-18T08:15:13.165Z,44.50
2019-03-18T08:17:42.190Z,44.33
2019-03-18T08:20:13.230Z,33.50
2019-03-18T08:22:42.138Z,13.88
2019-03-18T08:25:11.196Z,16.65
2019-03-18T08:27:40.040Z,30.10
2019-03-18T08:30:21.430Z,21.12
2019-03-18T08:32:50.293Z,19.23
2019-03-18T08:35:19.195Z,22.42
2019-03-18T08:37:48.917Z,11.18
2019-03-18T08:40:17.744Z,8.60
2019-03-18T08:42:46.591Z,13.05
2019-03-18T08:45:15.484Z,11.97
2019-03-18T08:47:44.348Z,10.65
2019-03-18T08:50:13.403Z,9.25
2019-03-18T08:52:42.330Z,10.55
2019-03-18T08:55:12.273Z,10.18
2019-03-18T08:57:41.119Z,9.20
2019-03-18T09:00:15.828Z,9.15
2019-03-18T09:02:44.668Z,9.88
2019-03-18T09:05:13.620Z,11.00
2019-03-18T09:07:42.550Z,10.30
2019-03-18T09:10:15.375Z,10.70
2019-03-18T09:12:44.262Z,8.70
2019-03-18T09:15:13.739Z,10.63
2019-03-18T09:17:42.593Z,10.50
2019-03-18T09:20:18.035Z,12.18
2019-03-18T09:22:46.868Z,7.40
2019-03-18T09:25:15.717Z,10.43
2019-03-18T09:27:44.645Z,8.80
2019-03-18T09:30:18.032Z,5.60
2019-03-18T09:32:47.118Z,35.83
2019-03-18T09:35:15.988Z,8.38
2019-03-18T09:37:44.821Z,10.98
2019-03-18T09:40:17.634Z,8.78
2019-03-18T09:42:46.679Z,9.33
2019-03-18T09:45:16.510Z,6.22
2019-03-18T09:47:45.346Z,7.70
2019-03-18T09:50:14.761Z,11.33
2019-03-18T09:52:43.694Z,8.75
2019-03-18T09:55:12.861Z,10.00
2019-03-18T09:57:41.745Z,9.43
2019-03-18T10:00:15.763Z,11.57
2019-03-18T10:02:44.760Z,8.20
2019-03-18T10:05:13.590Z,9.15
2019-03-18T10:07:42.445Z,8.95
2019-03-18T10:10:13.038Z,8.83
2019-03-18T10:12:41.876Z,6.95
2019-03-18T10:15:13.660Z,6.55
2019-03-18T10:17:42.535Z,6.72
2019-03-18T10:20:11.402Z,9.98
2019-03-18T10:22:40.280Z,7.70
2019-03-18T10:25:09.352Z,7.65
2019-03-18T10:27:38.246Z,13.27
2019-03-18T10:30:14.546Z,7.60
2019-03-18T10:32:43.374Z,7.80
2019-03-18T10:35:12.514Z,9.30
2019-03-18T10:37:41.399Z,15.27
2019-03-18T10:40:14.913Z,10.17
2019-03-18T10:42:43.771Z,13.07
2019-03-18T10:45:13.698Z,8.70
2019-03-18T10:47:42.638Z,10.47
2019-03-18T10:50:13.844Z,11.60
2019-03-18T10:52:42.748Z,8.87
2019-03-18T10:55:11.717Z,7.70
2019-03-18T10:57:40.527Z,10.67
2019-03-18T11:00:14.806Z,9.57
2019-03-18T11:02:45.033Z,9.30
2019-03-18T11:05:14.447Z,9.97
2019-03-18T11:07:43.369Z,11.37
2019-03-18T11:10:13.604Z,9.50
2019-03-18T11:12:42.457Z,8.70
2019-03-18T11:15:22.342Z,12.50
2019-03-18T11:17:51.197Z,16.80
2019-03-18T11:20:20.051Z,11.70
2019-03-18T11:22:48.955Z,7.83
2019-03-18T11:25:18.031Z,12.73
2019-03-18T11:27:46.889Z,8.87
2019-03-18T11:30:16.970Z,10.43
2019-03-18T11:32:45.997Z,8.63
2019-03-18T11:35:14.840Z,5.60
2019-03-18T11:37:43.837Z,9.47
2019-03-18T11:40:15.255Z,10.80
2019-03-18T11:42:44.091Z,6.57
2019-03-18T11:45:15.810Z,10.27
2019-03-18T11:47:44.836Z,18.40
2019-03-18T11:50:20.343Z,14.00
2019-03-18T11:52:49.283Z,18.37
2019-03-18T11:55:28.705Z,11.47
2019-03-18T11:57:57.541Z,12.47
2019-03-18T12:00:26.889Z,14.33
2019-03-18T12:02:55.770Z,14.30
2019-03-18T12:05:25.707Z,12.30
2019-03-18T12:07:54.577Z,13.30
2019-03-18T12:10:25.665Z,16.03
2019-03-18T12:12:54.178Z,12.63
2019-03-18T12:15:25.373Z,12.80
2019-03-18T12:17:54.362Z,13.47
2019-03-18T12:20:25.275Z,14.50
2019-03-18T12:22:53.735Z,14.13
2019-03-18T12:25:22.621Z,12.50
2019-03-18T12:27:51.475Z,9.73
2019-03-18T12:30:24.924Z,14.77
2019-03-18T12:32:53.817Z,10.23
2019-03-18T12:35:22.657Z,17.27
2019-03-18T12:37:51.599Z,14.13
2019-03-18T12:40:20.511Z,13.47
2019-03-18T12:42:49.346Z,15.73
2019-03-18T12:45:19.297Z,11.73
2019-03-18T12:47:49.110Z,10.10
2019-03-18T12:50:18.878Z,9.03
2019-03-18T12:52:47.917Z,13.13
2019-03-18T12:55:17.001Z,10.50
2019-03-18T12:57:45.844Z,10.50
2019-03-18T13:00:26.377Z,15.17
2019-03-18T13:02:55.222Z,13.60
2019-03-18T13:05:24.068Z,12.87
2019-03-18T13:07:52.965Z,10.27
2019-03-18T13:10:22.264Z,6.80
2019-03-18T13:12:51.266Z,11.40
2019-03-18T13:15:20.946Z,12.03
2019-03-18T13:17:49.783Z,9.90
2019-03-18T13:20:19.527Z,7.53
2019-03-18T13:22:48.453Z,9.33
2019-03-18T13:25:17.300Z,10.47
2019-03-18T13:27:46.144Z,7.03
2019-03-18T13:30:18.742Z,10.03
2019-03-18T13:32:47.579Z,8.57
2019-03-18T13:35:16.541Z,6.97
2019-03-18T13:37:45.523Z,10.20
2019-03-18T13:40:16.711Z,7.67
2019-03-18T13:42:45.683Z,11.57
2019-03-18T13:45:21.754Z,9.07
2019-03-18T13:47:50.636Z,6.43
2019-03-18T13:50:20.402Z,7.23
2019-03-18T13:52:49.292Z,6.43
2019-03-18T13:55:18.162Z,10.00
2019-03-18T13:57:47.104Z,6.83
2019-03-18T14:00:21.022Z,8.63
2019-03-18T14:02:49.886Z,11.53
2019-03-18T14:05:18.776Z,8.90
2019-03-18T14:07:59.795Z,8.13
2019-03-18T14:10:20.205Z,8.80
2019-03-18T14:12:49.039Z,5.67
2019-03-18T14:15:25.097Z,10.27
2019-03-18T14:17:53.936Z,7.83
2019-03-18T14:20:27.011Z,7.10
2019-03-18T14:22:55.894Z,7.33
2019-03-18T14:25:24.723Z,6.27
2019-03-18T14:27:53.584Z,7.47
2019-03-18T14:30:23.358Z,9.40
2019-03-18T14:32:52.196Z,7.80
2019-03-18T14:35:21.868Z,6.43
2019-03-18T14:37:51.236Z,10.77
2019-03-18T14:40:26.562Z,8.73
2019-03-18T14:42:55.477Z,9.30
2019-03-18T14:45:24.728Z,15.03
2019-03-18T14:47:53.564Z,8.83
2019-03-18T14:50:22.449Z,6.17
2019-03-18T14:52:51.302Z,7.50
2019-03-18T14:55:20.134Z,5.17
2019-03-18T14:57:49.044Z,7.97
2019-03-18T15:00:19.683Z,13.13
2019-03-18T15:02:48.544Z,11.40
2019-03-18T15:05:17.445Z,8.77
2019-03-18T15:07:46.374Z,12.50
2019-03-18T15:10:17.704Z,10.47
2019-03-18T15:12:46.582Z,9.47
2019-03-18T15:15:17.349Z,4.87
2019-03-18T15:17:46.194Z,8.03
2019-03-18T15:20:16.810Z,10.87
2019-03-18T15:22:45.653Z,10.53
2019-03-18T15:25:17.267Z,8.00
2019-03-18T15:27:46.150Z,7.80
2019-03-18T15:30:19.909Z,5.87
2019-03-18T15:32:48.858Z,3.90
2019-03-18T15:35:18.273Z,6.07
2019-03-18T15:37:47.306Z,6.20
2019-03-18T15:40:24.947Z,9.50
2019-03-18T15:42:53.782Z,4.93
2019-03-18T15:45:23.137Z,6.27
2019-03-18T15:47:52.025Z,4.70
2019-03-18T15:50:22.170Z,12.23
2019-03-18T15:52:51.033Z,10.27
2019-03-18T15:55:19.925Z,6.20
2019-03-18T15:57:48.810Z,4.60
2019-03-18T16:00:27.993Z,3.93
2019-03-18T16:02:56.873Z,8.00
2019-03-18T16:05:25.711Z,8.27
2019-03-18T16:07:54.619Z,13.30
2019-03-18T16:10:23.479Z,15.40
2019-03-18T16:12:52.311Z,7.07
2019-03-18T16:15:21.234Z,6.13
2019-03-18T16:17:50.067Z,8.47
2019-03-18T16:20:23.484Z,9.03
2019-03-18T16:22:52.377Z,9.87
2019-03-18T16:25:21.328Z,6.00
2019-03-18T16:27:50.181Z,11.63
2019-03-18T16:30:22.563Z,9.63
2019-03-18T16:32:51.412Z,10.83
2019-03-18T16:35:20.464Z,12.57
2019-03-18T16:37:49.352Z,11.33
2019-03-18T16:40:22.748Z,19.63
2019-03-18T16:42:51.642Z,9.43
2019-03-18T16:45:21.237Z,13.77
2019-03-18T16:47:50.081Z,6.67
2019-03-18T16:50:30.408Z,9.20
2019-03-18T16:52:59.234Z,7.73
2019-03-18T16:55:28.078Z,10.80
2019-03-18T16:57:57.839Z,7.53
2019-03-18T17:00:29.864Z,8.77
2019-03-18T17:02:58.706Z,7.93
2019-03-18T17:05:27.583Z,6.30
2019-03-18T17:07:56.410Z,8.10
2019-03-18T17:10:25.269Z,7.43
2019-03-18T17:12:54.295Z,7.07
2019-03-18T17:15:23.473Z,6.47
2019-03-18T17:17:52.310Z,5.80
2019-03-18T17:20:21.205Z,5.30
2019-03-18T17:22:50.571Z,7.60
2019-03-18T17:25:21.104Z,9.50
2019-03-18T17:27:50.088Z,8.10
2019-03-18T17:30:20.699Z,5.50
2019-03-18T17:32:49.621Z,8.83
2019-03-18T17:35:18.547Z,5.13
2019-03-18T17:37:47.397Z,8.50
2019-03-18T17:40:18.299Z,6.13
2019-03-18T17:42:47.413Z,7.43
2019-03-18T17:45:17.262Z,8.10
2019-03-18T17:47:46.414Z,8.30
2019-03-18T17:50:23.509Z,5.13
2019-03-18T17:53:02.386Z,6.67
2019-03-18T17:55:22.877Z,6.17
2019-03-18T17:57:51.773Z,6.27
2019-03-18T18:00:37.599Z,6.63
2019-03-18T18:03:06.471Z,5.27
2019-03-18T18:05:36.122Z,8.20
2019-03-18T18:08:06.591Z,10.03
2019-03-18T18:10:35.626Z,4.57
2019-03-18T18:13:04.561Z,8.43
2019-03-18T18:15:33.413Z,8.50
2019-03-18T18:18:02.297Z,10.03
2019-03-18T18:20:31.126Z,4.77
2019-03-18T18:22:59.982Z,6.43
2019-03-18T18:25:28.880Z,6.70
2019-03-18T18:27:57.824Z,11.27
2019-03-18T18:30:26.656Z,10.03
2019-03-18T18:32:55.586Z,8.60
2019-03-18T18:35:24.443Z,8.27
2019-03-18T18:37:53.294Z,6.63
2019-03-18T18:40:24.857Z,8.60
2019-03-18T18:42:53.670Z,7.03
2019-03-18T18:45:22.566Z,7.13
2019-03-18T18:47:51.460Z,10.13
2019-03-18T18:50:20.314Z,4.97
2019-03-18T18:52:49.167Z,6.10
2019-03-18T18:55:18.098Z,5.90
2019-03-18T18:57:47.635Z,5.43
2019-03-18T19:00:20.819Z,4.60
2019-03-18T19:02:50.078Z,4.67
2019-03-18T19:05:19.536Z,4.73
2019-03-18T19:07:48.370Z,6.57
2019-03-18T19:10:20.741Z,4.10
2019-03-18T19:12:49.583Z,6.47
2019-03-18T19:15:35.843Z,4.93
2019-03-18T19:18:04.794Z,9.20
2019-03-18T19:20:33.635Z,7.10
2019-03-18T19:23:02.526Z,4.60
2019-03-18T19:25:31.355Z,6.13
2019-03-18T19:28:00.199Z,9.17
2019-03-18T19:30:29.145Z,7.00
2019-03-18T19:32:57.979Z,7.23
2019-03-18T19:35:28.719Z,7.73
2019-03-18T19:37:57.806Z,6.63
2019-03-18T19:40:26.645Z,7.77
2019-03-18T19:42:55.513Z,4.17
2019-03-18T19:45:24.401Z,3.67
2019-03-18T19:47:53.669Z,4.77
2019-03-18T19:50:26.690Z,7.93
2019-03-18T19:52:55.670Z,5.87
2019-03-18T19:55:24.526Z,6.73
2019-03-18T19:57:53.354Z,4.37
2019-03-18T20:00:29.541Z,5.53
2019-03-18T20:02:58.370Z,6.50
2019-03-18T20:05:27.226Z,5.63
2019-03-18T20:07:56.275Z,5.83
2019-03-18T20:10:25.148Z,6.43
2019-03-18T20:12:54.023Z,4.03
2019-03-18T20:15:23.023Z,5.23
2019-03-18T20:17:51.867Z,5.40
2019-03-18T20:20:24.243Z,6.67
2019-03-18T20:22:53.135Z,7.93
2019-03-18T20:25:21.954Z,9.40
2019-03-18T20:27:50.785Z,4.77
2019-03-18T20:30:21.672Z,6.80
2019-03-18T20:32:50.502Z,4.87
2019-03-18T20:35:25.762Z,5.97
2019-03-18T20:37:54.595Z,4.80
2019-03-18T20:40:23.440Z,12.63
2019-03-18T20:42:52.421Z,7.83
2019-03-18T20:45:25.642Z,8.10
2019-03-18T20:47:54.613Z,4.20
2019-03-18T20:50:25.191Z,7.43
2019-03-18T20:52:54.022Z,4.73
2019-03-18T20:55:22.854Z,4.37
2019-03-18T20:57:51.718Z,4.83
2019-03-18T21:00:24.271Z,4.20
2019-03-18T21:02:53.096Z,5.93
2019-03-18T21:05:24.669Z,3.23
2019-03-18T21:07:53.318Z,7.17
2019-03-18T21:10:22.370Z,5.70
2019-03-18T21:12:51.261Z,4.20
2019-03-18T21:15:20.260Z,5.70
2019-03-18T21:17:49.117Z,6.83
2019-03-18T21:20:32.773Z,5.80
2019-03-18T21:23:01.664Z,5.10
2019-03-18T21:25:30.545Z,3.93
2019-03-18T21:27:59.480Z,4.93
2019-03-18T21:30:28.327Z,6.27
2019-03-18T21:32:59.634Z,6.17
2019-03-18T21:35:28.495Z,6.30
2019-03-18T21:37:57.344Z,4.27
2019-03-18T21:40:26.186Z,5.63
2019-03-18T21:42:55.174Z,5.07
2019-03-18T21:45:24.736Z,4.13
2019-03-18T21:47:53.586Z,6.93
2019-03-18T21:50:22.726Z,7.07
2019-03-18T21:52:51.562Z,6.57
2019-03-18T21:55:20.398Z,5.67
2019-03-18T21:57:49.265Z,4.60
2019-03-18T22:00:22.784Z,4.23
2019-03-18T22:02:51.615Z,4.93
2019-03-18T22:05:20.593Z,4.87
2019-03-18T22:07:49.447Z,5.23
2019-03-18T22:10:21.553Z,5.10
2019-03-18T22:12:50.464Z,4.73
2019-03-18T22:15:19.512Z,5.00
2019-03-18T22:17:48.351Z,5.20
2019-03-18T22:20:20.569Z,4.60
2019-03-18T22:22:49.423Z,5.50
2019-03-18T22:25:18.265Z,5.03
2019-03-18T22:27:47.146Z,6.73
2019-03-18T22:30:17.862Z,4.27
2019-03-18T22:32:46.996Z,3.13
2019-03-18T22:35:16.032Z,5.03
2019-03-18T22:37:44.864Z,5.07
2019-03-18T22:40:17.686Z,6.10
2019-03-18T22:42:46.566Z,4.73
2019-03-18T22:45:17.481Z,4.47
2019-03-18T22:47:46.429Z,3.97
2019-03-18T22:50:18.941Z,6.57
2019-03-18T22:52:47.802Z,4.17
2019-03-18T22:55:16.658Z,4.33
2019-03-18T22:57:45.545Z,8.43
2019-03-18T23:00:26.333Z,8.07
2019-03-18T23:02:55.524Z,6.03
2019-03-18T23:05:24.355Z,4.60
2019-03-18T23:07:53.196Z,5.70
2019-03-18T23:10:22.105Z,7.93
2019-03-18T23:12:51.807Z,11.57
2019-03-18T23:15:20.674Z,5.93
2019-03-18T23:17:49.521Z,8.27
2019-03-18T23:20:18.362Z,8.03
2019-03-18T23:22:47.493Z,7.47
2019-03-18T23:25:16.319Z,8.43
2019-03-18T23:27:45.155Z,12.77
2019-03-18T23:30:15.264Z,14.13
2019-03-18T23:32:44.104Z,7.30
2019-03-18T23:35:12.940Z,7.53
2019-03-18T23:37:41.806Z,7.67
2019-03-18T23:40:12.351Z,5.60
2019-03-18T23:42:41.192Z,8.43
2019-03-18T23:45:10.975Z,9.73
2019-03-18T23:47:39.829Z,8.37
2019-03-18T23:50:11.603Z,15.57
2019-03-18T23:52:40.498Z,10.20
2019-03-18T23:55:18.459Z,11.00
2019-03-18T23:57:40.533Z,5.23
